Time;durP1;ratioP1;P1;durP2;ratioP2;P2;SDS_P1;SDS_P2;PMS_P1;PMS_P2;Temp;Humidity;BMP_temperature;BMP_pressure;BME280_temperature;BME280_humidity;BME280_pressure;Samples;Min_cycle;Max_cycle;Signal;HPM_P1;HPM_P2
2024/01/11 00:00:52;;;;;;;;;9.75;9.50;;;;;-5.78;72.92;101386.06;5093575;28;8949;-56
2024/01/11 00:03:20;;;;;;;;;7.50;6.75;;;;;-5.80;72.82;101389.53;5088530;28;8836;-56
2024/01/11 00:05:48;;;;;;;;;4.50;4.50;;;;;-5.79;73.37;101392.13;5087684;28;8919;-57
2024/01/11 00:08:15;;;;;;;;;9.50;8.50;;;;;-5.77;72.45;101390.41;5082940;28;8827;-55
2024/01/11 00:10:44;;;;;;;;;15.50;15.50;;;;;-5.78;73.05;101382.63;5095503;28;8838;-55
2024/01/11 00:13:12;;;;;;;;;8.00;6.50;;;;;-5.81;73.27;101387.78;5091992;28;8971;-56
2024/01/11 00:15:39;;;;;;;;;7.50;7.50;;;;;-5.84;73.25;101378.25;5094607;28;8832;-55
2024/01/11 00:18:07;;;;;;;;;13.50;12.25;;;;;-5.87;72.65;101375.66;5095473;28;8863;-55
2024/01/11 00:20:35;;;;;;;;;13.00;10.00;;;;;-5.89;73.40;101368.72;5097415;28;8810;-58
2024/01/11 00:23:03;;;;;;;;;9.00;7.50;;;;;-5.92;73.25;101366.97;5093597;28;8824;-55
2024/01/11 00:25:31;;;;;;;;;11.00;11.00;;;;;-5.94;73.33;101360.00;5094057;28;8826;-58
2024/01/11 00:27:58;;;;;;;;;7.25;6.25;;;;;-5.97;73.47;101365.19;5098115;28;8826;-57
2024/01/11 00:30:26;;;;;;;;;4.00;4.00;;;;;-5.98;73.58;101363.47;5097511;28;9579;-58
2024/01/11 00:32:54;;;;;;;;;4.00;4.00;;;;;-6.00;73.76;101355.66;5094613;28;8846;-58
2024/01/11 00:35:22;;;;;;;;;8.50;8.00;;;;;-5.99;73.44;101357.38;5097314;28;8810;-59
2024/01/11 00:37:50;;;;;;;;;11.00;11.00;;;;;-5.97;73.31;101357.41;5096889;28;8845;-60
2024/01/11 00:40:18;;;;;;;;;6.50;6.25;;;;;-5.97;73.26;101357.41;5097147;28;8830;-60
2024/01/11 00:42:46;;;;;;;;;9.50;9.00;;;;;-5.97;73.56;101360.00;5096939;28;8810;-61
2024/01/11 00:45:14;;;;;;;;;10.75;10.25;;;;;-5.96;73.42;101362.63;5097040;28;8834;-60
2024/01/11 00:47:42;;;;;;;;;4.50;4.50;;;;;-5.96;73.32;101364.31;5096878;28;8837;-59
2024/01/11 00:50:10;;;;;;;;;10.00;10.00;;;;;-5.96;73.48;101367.81;5098514;28;9533;-61
2024/01/11 00:52:39;;;;;;;;;13.25;11.00;;;;;-5.97;73.74;101371.25;5097524;28;8806;-61
2024/01/11 00:55:07;;;;;;;;;4.00;3.25;;;;;-5.99;73.53;101370.34;5098068;28;9440;-61
2024/01/11 00:57:35;;;;;;;;;15.50;13.50;;;;;-6.02;73.76;101357.38;5096637;28;9822;-60
2024/01/11 01:00:03;;;;;;;;;4.50;4.25;;;;;-6.07;73.58;101360.78;5097262;28;8841;-61
2024/01/11 01:02:31;;;;;;;;;15.50;14.75;;;;;-6.10;73.45;101358.13;5094517;28;8805;-57
2024/01/11 01:04:59;;;;;;;;;9.25;8.75;;;;;-6.15;73.80;101359.84;5097308;28;8814;-60
2024/01/11 01:07:27;;;;;;;;;1.25;1.25;;;;;-6.18;73.73;101354.59;5096748;28;8826;-60
2024/01/11 01:09:54;;;;;;;;;9.00;7.00;;;;;-6.19;73.84;101358.94;5097199;28;8904;-59
2024/01/11 01:12:24;;;;;;;;;9.75;9.75;;;;;-6.20;73.68;101357.22;5097766;28;8822;-60
2024/01/11 01:14:52;;;;;;;;;8.00;6.00;;;;;-6.25;73.76;101361.47;5097168;28;8814;-59
2024/01/11 01:17:20;;;;;;;;;7.50;7.50;;;;;-6.26;73.99;101361.44;5091551;28;8829;-60
2024/01/11 01:19:47;;;;;;;;;7.00;6.25;;;;;-6.30;73.92;101365.72;5097357;28;8841;-60
2024/01/11 01:22:15;;;;;;;;;7.50;7.50;;;;;-6.32;74.10;101367.44;5096923;28;8895;-60
2024/01/11 01:24:43;;;;;;;;;5.50;5.50;;;;;-6.35;74.08;101367.41;5097344;28;8799;-60
2024/01/11 01:27:11;;;;;;;;;12.00;12.00;;;;;-6.36;74.33;101376.00;5096464;28;8806;-60
2024/01/11 01:29:38;;;;;;;;;9.50;9.25;;;;;-6.37;73.85;101366.50;5095639;28;8836;-60
2024/01/11 01:32:06;;;;;;;;;4.50;4.00;;;;;-6.40;73.91;101374.25;5096980;28;8807;-58
2024/01/11 01:34:34;;;;;;;;;8.50;6.25;;;;;-6.42;74.10;101378.56;5099680;28;8821;-60
2024/01/11 01:37:02;;;;;;;;;4.50;4.50;;;;;-6.42;74.07;101385.44;5096334;28;8895;-58
2024/01/11 01:39:30;;;;;;;;;7.50;7.50;;;;;-6.44;73.96;101376.78;5096787;28;9617;-58
2024/01/11 01:41:57;;;;;;;;;6.00;6.00;;;;;-6.46;74.15;101374.19;5096728;28;8864;-60
2024/01/11 01:44:25;;;;;;;;;4.00;4.00;;;;;-6.48;74.31;101373.31;5096770;28;8802;-60
2024/01/11 01:46:53;;;;;;;;;6.75;5.50;;;;;-6.49;73.83;101366.38;5094500;28;8879;-60
2024/01/11 01:49:22;;;;;;;;;7.75;7.75;;;;;-6.51;73.92;101375.84;5096959;28;8830;-60
2024/01/11 01:51:50;;;;;;;;;7.00;6.00;;;;;-6.53;73.71;101380.13;5097006;28;9460;-60
2024/01/11 01:54:18;;;;;;;;;4.75;3.50;;;;;-6.54;74.39;101372.38;5096634;28;8829;-60
2024/01/11 01:56:45;;;;;;;;;3.50;3.50;;;;;-6.56;73.99;101368.88;5096359;28;8830;-60
2024/01/11 01:59:13;;;;;;;;;6.00;6.00;;;;;-6.56;74.39;101376.63;5096054;28;8814;-60
2024/01/11 02:01:41;;;;;;;;;9.25;7.50;;;;;-6.58;74.26;101371.47;5094232;28;8838;-60
2024/01/11 02:04:09;;;;;;;;;7.75;5.00;;;;;-6.58;74.27;101371.47;5095723;28;8857;-60
2024/01/11 02:06:36;;;;;;;;;8.00;6.50;;;;;-6.58;74.41;101368.00;5095696;28;8814;-58
2024/01/11 02:09:04;;;;;;;;;8.50;8.00;;;;;-6.57;74.03;101370.63;5095883;28;8807;-58
2024/01/11 02:11:32;;;;;;;;;7.50;6.00;;;;;-6.57;74.29;101368.03;5096019;28;8803;-59
2024/01/11 02:14:00;;;;;;;;;11.00;10.00;;;;;-6.58;74.19;101374.06;5095891;28;8904;-58
2024/01/11 02:16:28;;;;;;;;;5.75;5.50;;;;;-6.58;74.37;101374.06;5096007;28;8836;-59
2024/01/11 02:18:56;;;;;;;;;9.50;9.00;;;;;-6.58;74.31;101365.41;5094965;28;8928;-58
2024/01/11 02:21:24;;;;;;;;;6.00;4.50;;;;;-6.61;74.14;101367.97;5096645;28;8869;-57
2024/01/11 02:23:53;;;;;;;;;6.50;6.25;;;;;-6.64;74.36;101367.91;5096543;28;8842;-59
2024/01/11 02:26:22;;;;;;;;;10.25;9.25;;;;;-6.68;74.13;101373.94;5096191;28;8818;-58
2024/01/11 02:28:50;;;;;;;;;6.75;6.75;;;;;-6.68;74.56;101386.88;5096085;28;8810;-57
2024/01/11 02:31:17;;;;;;;;;8.50;7.50;;;;;-6.68;74.24;101382.53;5096269;28;8830;-58
2024/01/11 02:33:45;;;;;;;;;8.25;6.50;;;;;-6.67;74.10;101381.69;5094955;28;9310;-59
2024/01/11 02:36:13;;;;;;;;;7.00;7.00;;;;;-6.70;74.02;101371.31;5095979;28;8826;-59
2024/01/11 02:38:41;;;;;;;;;9.00;7.50;;;;;-6.73;74.04;101373.00;5094936;28;8948;-59
2024/01/11 02:41:09;;;;;;;;;3.75;3.50;;;;;-6.77;74.07;101366.91;5095710;28;9468;-60
2024/01/11 02:43:37;;;;;;;;;8.00;8.00;;;;;-6.78;74.34;101374.66;5096003;28;8826;-59
2024/01/11 02:46:04;;;;;;;;;4.00;4.00;;;;;-6.81;74.03;101379.78;5096416;28;8818;-58
2024/01/11 02:48:32;;;;;;;;;3.25;3.25;;;;;-6.84;73.85;101372.84;5093732;28;8818;-60
2024/01/11 02:51:01;;;;;;;;;10.50;10.00;;;;;-6.87;74.41;101379.72;5095959;28;8833;-60
2024/01/11 02:53:33;;;;;;;;;10.00;9.75;;;;;-6.88;74.58;101393.50;5095852;28;8846;-57
2024/01/11 02:56:02;;;;;;;;;8.75;8.75;;;;;-6.90;74.57;101385.72;5095904;28;8903;-59
2024/01/11 02:58:30;;;;;;;;;3.75;3.75;;;;;-6.93;74.06;101375.31;5094623;28;8826;-59
2024/01/11 03:00:57;;;;;;;;;3.50;3.50;;;;;-6.95;74.71;101381.31;5095992;28;8830;-58
2024/01/11 03:03:25;;;;;;;;;6.50;6.25;;;;;-6.98;74.42;101371.81;5093837;28;8807;-57
2024/01/11 03:05:53;;;;;;;;;11.00;10.00;;;;;-7.00;74.70;101370.91;5095779;28;8842;-60
2024/01/11 03:08:22;;;;;;;;;8.00;7.00;;;;;-7.01;74.74;101370.88;5095597;28;8818;-60
2024/01/11 03:10:50;;;;;;;;;8.50;7.00;;;;;-7.02;74.88;101375.22;5096203;28;8832;-58
2024/01/11 03:13:17;;;;;;;;;11.50;10.25;;;;;-7.03;74.71;101377.78;5095695;28;8830;-59
2024/01/11 03:15:45;;;;;;;;;9.00;9.00;;;;;-7.03;74.53;101373.47;5095211;28;8806;-58
2024/01/11 03:18:13;;;;;;;;;9.00;7.50;;;;;-7.04;74.62;101368.28;5103357;28;8830;-58
2024/01/11 03:20:41;;;;;;;;;8.50;6.75;;;;;-7.04;74.93;101371.72;5095707;28;9802;-57
2024/01/11 03:23:08;;;;;;;;;9.00;9.00;;;;;-7.04;74.54;101376.03;5095639;28;9475;-60
2024/01/11 03:25:36;;;;;;;;;6.00;6.00;;;;;-7.04;74.08;101386.38;5095758;28;8834;-59
2024/01/11 03:28:04;;;;;;;;;8.50;6.50;;;;;-7.02;74.64;101395.91;5095443;28;8840;-58
2024/01/11 03:30:32;;;;;;;;;6.00;6.00;;;;;-7.02;74.29;101401.09;5096102;28;8866;-57
2024/01/11 03:33:00;;;;;;;;;7.00;6.25;;;;;-7.04;74.91;101402.75;5092871;28;8822;-60
2024/01/11 03:35:28;;;;;;;;;7.50;7.00;;;;;-7.03;74.74;101398.47;5095529;28;8807;-58
2024/01/11 03:37:55;;;;;;;;;10.25;9.75;;;;;-7.07;74.92;101402.72;5097668;28;9542;-60
2024/01/11 03:40:23;;;;;;;;;10.00;6.25;;;;;-7.10;74.58;101407.00;5099239;28;8822;-60
2024/01/11 03:42:51;;;;;;;;;7.25;5.75;;;;;-7.12;74.52;101414.72;5099171;28;8833;-60
2024/01/11 03:45:19;;;;;;;;;9.50;8.50;;;;;-7.14;74.60;101419.00;5087280;28;8822;-60
2024/01/11 03:47:46;;;;;;;;;10.25;9.25;;;;;-7.15;74.38;101408.63;5097625;28;8953;-60
2024/01/11 03:50:14;;;;;;;;;4.00;4.00;;;;;-7.17;74.59;101416.41;5098891;28;8811;-57
2024/01/11 03:52:42;;;;;;;;;3.50;3.00;;;;;-7.18;74.79;101421.53;5098444;28;8869;-58
2024/01/11 03:55:10;;;;;;;;;6.00;6.00;;;;;-7.20;75.12;101399.97;5098883;28;8836;-60
2024/01/11 03:57:38;;;;;;;;;4.50;4.50;;;;;-7.20;74.94;101416.31;5098615;28;8818;-59
2024/01/11 04:00:06;;;;;;;;;10.00;10.00;;;;;-7.19;74.67;101420.66;5098904;28;8838;-59
2024/01/11 04:02:37;;;;;;;;;9.25;9.00;;;;;-7.18;74.92;101418.94;5097093;28;8874;-59
2024/01/11 04:05:06;;;;;;;;;6.25;6.25;;;;;-7.20;74.61;101415.47;5098979;28;8834;-59
2024/01/11 04:07:34;;;;;;;;;9.50;9.50;;;;;-7.18;74.81;101430.19;5098725;28;8830;-58
2024/01/11 04:10:01;;;;;;;;;9.75;9.25;;;;;-7.16;75.13;101428.47;5099029;28;8810;-58
2024/01/11 04:12:29;;;;;;;;;8.00;7.25;;;;;-7.16;74.61;101418.13;5098273;28;8842;-58
2024/01/11 04:14:57;;;;;;;;;11.00;8.50;;;;;-7.17;74.64;101418.97;5098214;28;8829;-60
2024/01/11 04:17:25;;;;;;;;;11.25;9.25;;;;;-7.17;74.49;101416.41;5096262;28;8803;-57
2024/01/11 04:19:52;;;;;;;;;9.50;7.50;;;;;-7.15;74.68;101419.88;5097952;28;8818;-57
2024/01/11 04:22:20;;;;;;;;;10.50;9.75;;;;;-7.18;74.60;101419.84;5097504;28;8822;-60
2024/01/11 04:24:48;;;;;;;;;9.25;9.25;;;;;-7.21;74.89;101427.53;5098168;28;8815;-58
2024/01/11 04:27:16;;;;;;;;;3.25;3.00;;;;;-7.24;74.38;101418.84;5098250;28;8810;-57
2024/01/11 04:29:44;;;;;;;;;7.00;6.25;;;;;-7.26;74.90;101418.84;5098278;28;8836;-59
2024/01/11 04:32:12;;;;;;;;;6.25;6.25;;;;;-7.27;74.50;101419.66;5095839;28;8814;-60
2024/01/11 04:34:39;;;;;;;;;10.00;9.00;;;;;-7.26;74.97;101418.84;5097801;28;8854;-58
2024/01/11 04:37:07;;;;;;;;;7.75;3.50;;;;;-7.26;74.99;101421.44;5097954;28;8818;-59
2024/01/11 04:39:35;;;;;;;;;6.00;5.00;;;;;-7.26;74.82;101426.59;5097272;28;8822;-60
2024/01/11 04:42:02;;;;;;;;;6.00;6.00;;;;;-7.23;74.74;101413.72;5098025;28;8810;-60
2024/01/11 04:44:30;;;;;;;;;5.00;3.75;;;;;-7.21;74.92;101413.75;5098058;28;8822;-57
2024/01/11 04:46:58;;;;;;;;;12.25;11.25;;;;;-7.21;74.70;101419.75;5097513;28;8832;-57
2024/01/11 04:49:26;;;;;;;;;10.75;10.50;;;;;-7.22;74.67;101427.50;5097198;28;8917;-60
2024/01/11 04:51:53;;;;;;;;;8.50;8.00;;;;;-7.23;74.40;101431.81;5096953;28;8961;-60
2024/01/11 04:54:21;;;;;;;;;4.00;4.00;;;;;-7.24;74.84;101430.06;5097508;28;8810;-58
2024/01/11 04:56:50;;;;;;;;;3.50;3.25;;;;;-7.26;74.96;101429.19;5097853;28;8826;-60
2024/01/11 04:59:18;;;;;;;;;3.00;3.00;;;;;-7.28;74.54;101428.28;5097118;28;8858;-60
2024/01/11 05:01:45;;;;;;;;;6.25;6.25;;;;;-7.30;74.85;101435.16;5095784;28;8895;-60
2024/01/11 05:04:13;;;;;;;;;3.00;3.00;;;;;-7.30;74.57;101432.56;5096921;28;8857;-58
2024/01/11 05:06:41;;;;;;;;;11.00;10.50;;;;;-7.30;74.63;101436.84;5096560;28;9530;-60
2024/01/11 05:09:09;;;;;;;;;8.25;6.75;;;;;-7.30;74.78;101448.09;5096493;28;8852;-58
2024/01/11 05:11:36;;;;;;;;;9.75;9.25;;;;;-7.31;74.96;101446.34;5090157;28;8864;-60
2024/01/11 05:14:04;;;;;;;;;8.00;6.50;;;;;-7.36;74.90;101453.16;5096647;28;8822;-60
2024/01/11 05:16:32;;;;;;;;;7.50;7.50;;;;;-7.42;74.66;101462.53;5097729;28;8822;-58
2024/01/11 05:19:00;;;;;;;;;7.25;6.50;;;;;-7.46;75.04;101463.31;5088600;28;8847;-58
2024/01/11 05:21:27;;;;;;;;;2.75;2.50;;;;;-7.50;74.70;101464.13;5096194;28;8822;-58
2024/01/11 05:23:55;;;;;;;;;11.75;10.00;;;;;-7.53;75.45;101473.53;5096658;28;8830;-59
2024/01/11 05:26:23;;;;;;;;;4.50;4.00;;;;;-7.57;75.14;101467.44;5097121;28;8845;-59
2024/01/11 05:28:50;;;;;;;;;10.50;9.50;;;;;-7.59;75.22;101476.03;5096729;28;8830;-61
2024/01/11 05:31:19;;;;;;;;;2.00;2.00;;;;;-7.62;75.27;101471.66;5088078;28;8847;-60
2024/01/11 05:33:47;;;;;;;;;8.00;8.00;;;;;-7.62;75.39;101481.16;5096190;28;8834;-60
2024/01/11 05:36:16;;;;;;;;;11.50;11.50;;;;;-7.61;75.39;101482.88;5097029;28;8836;-59
2024/01/11 05:38:43;;;;;;;;;12.25;9.75;;;;;-7.57;75.32;101489.84;5096870;28;8906;-57
2024/01/11 05:41:12;;;;;;;;;11.00;11.00;;;;;-7.52;75.12;101482.19;5096034;28;8829;-58
2024/01/11 05:43:40;;;;;;;;;6.75;6.25;;;;;-7.47;75.51;101480.56;5096948;28;8822;-57
2024/01/11 05:46:07;;;;;;;;;10.75;8.00;;;;;-7.46;75.09;101484.00;5096862;28;8826;-57
2024/01/11 05:48:35;;;;;;;;;10.50;9.75;;;;;-7.47;75.27;101483.16;5097285;28;8844;-57
2024/01/11 05:51:03;;;;;;;;;7.50;7.50;;;;;-7.48;75.19;101488.28;5096317;28;8818;-58
2024/01/11 05:53:34;;;;;;;;;7.00;7.00;;;;;-7.47;75.17;101491.75;5096500;28;8985;-58
2024/01/11 05:56:03;;;;;;;;;14.75;11.75;;;;;-7.51;75.07;101478.75;5096602;28;8818;-58
2024/01/11 05:58:31;;;;;;;;;8.75;8.00;;;;;-7.51;75.30;101494.28;5096463;28;8842;-58
2024/01/11 06:00:58;;;;;;;;;12.75;12.00;;;;;-7.53;75.18;101493.38;5089114;28;8935;-60
2024/01/11 06:03:27;;;;;;;;;6.25;6.25;;;;;-7.55;74.92;101504.53;5096511;28;8907;-59
2024/01/11 06:05:55;;;;;;;;;3.50;3.50;;;;;-7.56;74.79;101492.47;5096794;28;8822;-60
2024/01/11 06:08:24;;;;;;;;;4.25;4.25;;;;;-7.58;75.23;101483.81;5096446;28;8899;-58
2024/01/11 06:10:51;;;;;;;;;4.00;4.00;;;;;-7.58;75.25;101488.09;5096408;28;9490;-57
2024/01/11 06:13:19;;;;;;;;;4.00;4.00;;;;;-7.57;75.26;101470.88;5096331;28;8984;-57
2024/01/11 06:15:47;;;;;;;;;8.00;8.00;;;;;-7.55;75.17;101467.50;5095910;28;8810;-57
2024/01/11 06:18:15;;;;;;;;;6.50;6.50;;;;;-7.54;75.03;101464.06;5096138;28;9525;-60
2024/01/11 06:20:43;;;;;;;;;9.50;9.25;;;;;-7.52;75.09;101461.50;5090775;28;9489;-59
2024/01/11 06:23:12;;;;;;;;;9.75;7.75;;;;;-7.49;75.16;101447.75;5094826;28;8809;-57
2024/01/11 06:25:40;;;;;;;;;4.00;4.00;;;;;-7.45;75.00;101439.19;5095963;28;8907;-60
2024/01/11 06:28:09;;;;;;;;;9.75;9.00;;;;;-7.40;75.15;101437.56;5095791;28;8965;-57
2024/01/11 06:30:37;;;;;;;;;5.00;5.00;;;;;-7.37;74.81;101451.41;5095952;28;8858;-57
2024/01/11 06:33:05;;;;;;;;;5.00;3.75;;;;;-7.35;74.55;101457.47;5095359;28;9530;-58
2024/01/11 06:35:33;;;;;;;;;4.50;4.50;;;;;-7.33;74.86;101473.91;5095449;28;8830;-57
2024/01/11 06:38:01;;;;;;;;;7.00;7.00;;;;;-7.29;74.99;101498.97;5094957;28;8944;-57
2024/01/11 06:40:28;;;;;;;;;8.00;8.00;;;;;-7.23;75.14;101483.53;5094409;28;8814;-58
2024/01/11 06:42:56;;;;;;;;;10.50;9.25;;;;;-7.20;74.72;101486.16;5094642;28;8826;-60
2024/01/11 06:45:24;;;;;;;;;6.25;5.25;;;;;-7.16;74.50;101480.22;5094410;28;8860;-57
2024/01/11 06:47:52;;;;;;;;;3.00;3.00;;;;;-7.20;74.82;101470.66;5094143;28;8864;-58
2024/01/11 06:50:20;;;;;;;;;6.00;6.00;;;;;-7.23;74.76;101473.19;5093043;28;8850;-60
2024/01/11 06:52:48;;;;;;;;;4.00;4.00;;;;;-7.26;74.82;101470.59;5093593;28;8825;-59
2024/01/11 06:55:16;;;;;;;;;9.25;7.50;;;;;-7.27;74.73;101471.41;5093834;28;8830;-57
2024/01/11 06:57:44;;;;;;;;;0.00;0.00;;;;;-7.26;74.76;101473.16;5094447;28;8826;-57
2024/01/11 07:00:13;;;;;;;;;6.75;6.75;;;;;-7.25;75.14;101479.19;5094148;28;8878;-57
2024/01/11 07:02:41;;;;;;;;;4.00;4.00;;;;;-7.27;74.59;101481.75;5094495;28;9499;-57
2024/01/11 07:05:09;;;;;;;;;7.00;6.00;;;;;-7.25;74.77;101500.78;5092982;28;8826;-58
2024/01/11 07:07:37;;;;;;;;;9.00;8.00;;;;;-7.25;74.71;101503.34;5093366;28;8822;-60
2024/01/11 07:10:05;;;;;;;;;6.50;5.25;;;;;-7.25;75.03;101500.78;5092907;28;8838;-58
2024/01/11 07:12:33;;;;;;;;;7.50;7.50;;;;;-7.26;75.19;101505.91;5092994;28;8829;-57
2024/01/11 07:15:01;;;;;;;;;2.75;2.75;;;;;-7.28;75.08;101518.81;5093616;28;8907;-58
2024/01/11 07:17:28;;;;;;;;;12.00;12.00;;;;;-7.31;74.84;101511.00;5093479;28;8832;-57
2024/01/11 07:19:56;;;;;;;;;13.25;11.75;;;;;-7.30;75.02;101509.28;5094180;28;9565;-58
2024/01/11 07:22:24;;;;;;;;;9.00;9.00;;;;;-7.31;74.85;101510.13;5093536;28;9680;-57
2024/01/11 07:24:52;;;;;;;;;0.25;0.25;;;;;-7.29;74.93;101521.38;5094890;28;8842;-57
2024/01/11 07:27:19;;;;;;;;;8.50;8.00;;;;;-7.30;75.20;101517.91;5094622;28;8811;-60
2024/01/11 07:29:47;;;;;;;;;7.50;7.50;;;;;-7.29;75.04;101511.88;5094126;28;8822;-57
2024/01/11 07:32:15;;;;;;;;;8.00;6.25;;;;;-7.30;75.15;101506.69;5093765;28;8830;-59
2024/01/11 07:34:43;;;;;;;;;9.25;9.25;;;;;-7.30;74.72;101502.41;5093528;28;8814;-59
2024/01/11 07:37:10;;;;;;;;;6.75;6.50;;;;;-7.31;75.00;101511.00;5093856;28;8944;-58
2024/01/11 07:39:38;;;;;;;;;8.00;8.00;;;;;-7.29;75.08;101509.31;5074116;28;8828;-58
2024/01/11 07:42:06;;;;;;;;;6.75;6.75;;;;;-7.29;74.98;101506.72;5074212;28;8974;-57
2024/01/11 07:44:34;;;;;;;;;3.25;0.50;;;;;-7.28;74.99;101497.25;5074548;28;8824;-58
2024/01/11 07:47:02;;;;;;;;;6.25;6.00;;;;;-7.25;75.06;101499.88;5073552;28;8828;-59
2024/01/11 07:49:30;;;;;;;;;2.00;2.00;;;;;-7.22;74.88;101493.03;5092475;28;8814;-59
2024/01/11 07:51:58;;;;;;;;;9.75;7.00;;;;;-7.20;74.18;101499.09;5093085;28;8822;-59
2024/01/11 07:54:26;;;;;;;;;6.50;6.50;;;;;-7.18;74.60;101494.84;5092562;28;9447;-58
2024/01/11 07:56:54;;;;;;;;;10.50;9.25;;;;;-7.17;74.81;101487.94;5092659;28;8829;-58
2024/01/11 07:59:21;;;;;;;;;8.00;8.00;;;;;-7.15;74.88;101489.72;5092047;28;8956;-60
2024/01/11 08:01:49;;;;;;;;;3.00;3.00;;;;;-7.12;74.75;101491.47;5092011;28;9603;-59
2024/01/11 08:04:17;;;;;;;;;6.75;6.25;;;;;-7.07;74.80;101485.53;5091486;28;8849;-59
2024/01/11 08:06:45;;;;;;;;;8.50;6.00;;;;;-7.00;74.82;101481.31;5092277;28;8875;-57
2024/01/11 08:09:13;;;;;;;;;4.00;4.00;;;;;-6.95;73.84;101479.66;5092730;28;8854;-60
2024/01/11 08:11:41;;;;;;;;;9.25;7.50;;;;;-6.89;74.42;101484.94;5084055;28;8814;-57
2024/01/11 08:14:15;;;;;;;;;6.50;6.50;;;;;-6.83;74.57;101491.06;5092909;28;8834;-59
2024/01/11 08:16:43;;;;;;;;;4.50;4.50;;;;;-6.78;74.33;101494.59;5092189;28;8880;-57
2024/01/11 08:19:13;;;;;;;;;7.25;7.25;;;;;-6.67;73.94;101502.53;5093021;28;8845;-58
2024/01/11 08:21:41;;;;;;;;;1.50;1.50;;;;;-6.57;74.13;101500.09;5092561;28;8862;-57
2024/01/11 08:24:09;;;;;;;;;7.50;7.50;;;;;-6.45;74.33;101518.34;5095464;28;8948;-58
2024/01/11 08:26:37;;;;;;;;;1.00;1.00;;;;;-6.29;73.95;101511.69;5095265;28;8818;-57
2024/01/11 08:29:05;;;;;;;;;12.50;11.00;;;;;-6.21;74.25;101507.47;5091354;28;8834;-58
2024/01/11 08:31:33;;;;;;;;;9.75;9.00;;;;;-6.09;73.79;101505.88;5091439;28;8838;-57
2024/01/11 08:34:05;;;;;;;;;12.00;12.00;;;;;-5.92;73.78;101509.53;5089484;28;8826;-58
2024/01/11 08:36:35;;;;;;;;;4.50;4.00;;;;;-5.75;73.73;101510.56;5095863;28;8849;-57
2024/01/11 08:39:05;;;;;;;;;13.00;12.25;;;;;-5.57;73.25;101513.34;5095886;28;9715;-57
2024/01/11 08:41:33;;;;;;;;;11.25;10.50;;;;;-5.36;73.17;101531.72;5095726;28;8842;-60
2024/01/11 08:44:01;;;;;;;;;11.50;10.00;;;;;-5.26;73.38;101530.09;5096036;28;8982;-57
2024/01/11 08:46:30;;;;;;;;;11.33;10.00;;;;;-5.21;73.29;101525.78;5095917;28;8822;-59
2024/01/11 08:48:59;;;;;;;;;7.00;7.00;;;;;-5.22;73.22;101527.53;5096003;28;8833;-57
2024/01/11 08:51:27;;;;;;;;;7.50;6.75;;;;;-5.25;73.12;101530.09;5095376;28;8929;-59
2024/01/11 08:53:55;;;;;;;;;12.75;11.50;;;;;-5.27;73.32;101549.97;5095945;28;8814;-60
2024/01/11 08:56:23;;;;;;;;;7.00;7.00;;;;;-5.25;73.04;101548.25;5096385;28;8830;-60
2024/01/11 08:58:51;;;;;;;;;9.00;8.60;;;;;-5.20;73.24;101545.69;5095723;28;8926;-60
2024/01/11 09:01:19;;;;;;;;;12.75;10.00;;;;;-5.19;72.96;101548.31;5091756;28;8861;-58
2024/01/11 09:03:47;;;;;;;;;8.60;7.40;;;;;-5.21;73.13;101547.44;5095695;28;8845;-60
2024/01/11 09:06:15;;;;;;;;;9.20;8.20;;;;;-5.17;73.52;101551.78;5096106;28;8895;-57
2024/01/11 09:08:44;;;;;;;;;10.00;10.00;;;;;-5.09;73.14;101544.94;5096814;28;8915;-59
2024/01/11 09:11:12;;;;;;;;;7.50;6.75;;;;;-5.04;72.93;101534.59;5091498;28;8848;-60
2024/01/11 09:13:40;;;;;;;;;9.40;9.20;;;;;-5.02;72.68;101540.69;5094319;28;8814;-59
2024/01/11 09:16:09;;;;;;;;;6.40;6.00;;;;;-5.01;72.59;101540.66;5096746;28;8968;-57
2024/01/11 09:18:37;;;;;;;;;8.20;7.00;;;;;-5.00;72.79;101536.38;5096067;28;8973;-59
2024/01/11 09:21:06;;;;;;;;;12.60;11.80;;;;;-4.95;72.74;101538.13;5096153;28;8821;-57
2024/01/11 09:23:34;;;;;;;;;10.00;10.00;;;;;-4.92;73.19;101548.56;5096268;28;8838;-59
2024/01/11 09:26:02;;;;;;;;;11.00;9.80;;;;;-4.85;73.04;101550.34;5095709;28;8927;-58
2024/01/11 09:28:30;;;;;;;;;8.40;6.20;;;;;-4.78;72.89;101549.50;5095290;28;8818;-58
2024/01/11 09:30:59;;;;;;;;;9.00;7.40;;;;;-4.72;72.78;101562.56;5087622;28;8945;-57
2024/01/11 09:33:27;;;;;;;;;9.60;9.60;;;;;-4.66;72.77;101559.13;5094330;28;8806;-58
2024/01/11 09:35:56;;;;;;;;;9.60;9.20;;;;;-4.62;72.54;101553.09;5094548;28;8899;-58
2024/01/11 09:38:24;;;;;;;;;7.40;6.80;;;;;-4.56;72.68;101564.41;5095443;28;8838;-55
2024/01/11 09:40:52;;;;;;;;;12.20;11.60;;;;;-4.48;72.56;101556.66;5095530;28;8826;-57
2024/01/11 09:43:20;;;;;;;;;12.00;11.60;;;;;-4.41;72.50;101558.44;5095613;28;9182;-58
2024/01/11 09:45:48;;;;;;;;;8.80;8.80;;;;;-4.32;72.37;101563.69;5095094;28;8957;-56
2024/01/11 09:48:16;;;;;;;;;6.60;6.60;;;;;-4.20;72.31;101558.59;5095217;28;8833;-58
2024/01/11 09:50:44;;;;;;;;;5.40;4.00;;;;;-4.05;72.23;101564.72;5095470;28;8834;-59
2024/01/11 09:53:13;;;;;;;;;9.60;8.20;;;;;-3.87;71.93;101570.03;5095835;28;8919;-58
2024/01/11 09:55:41;;;;;;;;;9.80;8.60;;;;;-3.72;71.44;101562.28;5095044;28;8828;-58
2024/01/11 09:58:09;;;;;;;;;9.00;7.00;;;;;-3.60;71.49;101564.91;5094996;28;8830;-58
2024/01/11 10:00:37;;;;;;;;;7.80;7.80;;;;;-3.49;71.11;101569.28;5094774;28;8839;-59
2024/01/11 10:03:05;;;;;;;;;9.60;7.60;;;;;-3.36;71.57;101567.56;5095564;28;8842;-59
2024/01/11 10:05:33;;;;;;;;;10.00;8.60;;;;;-3.25;71.04;101571.06;5094996;28;8846;-57
2024/01/11 10:08:01;;;;;;;;;7.40;7.40;;;;;-3.17;71.38;101566.75;5094471;28;8838;-58
2024/01/11 10:10:29;;;;;;;;;13.40;13.40;;;;;-3.01;71.17;101563.28;5094425;28;8822;-56
2024/01/11 10:12:57;;;;;;;;;13.40;12.80;;;;;-2.72;70.10;101572.84;5094529;28;8826;-58
2024/01/11 10:15:25;;;;;;;;;5.80;5.80;;;;;-2.41;70.21;101571.09;5094232;28;8860;-58
2024/01/11 10:17:53;;;;;;;;;10.60;10.60;;;;;-2.07;69.00;101580.56;5094430;28;9587;-58
2024/01/11 10:20:23;;;;;;;;;8.60;7.20;;;;;-1.72;68.69;101581.34;5093108;28;8852;-59
2024/01/11 10:22:52;;;;;;;;;8.40;7.20;;;;;-1.26;68.13;101568.06;5092465;28;8818;-58
2024/01/11 10:25:20;;;;;;;;;15.20;14.60;;;;;-0.65;67.13;101555.38;5095237;28;8822;-58
2024/01/11 10:27:48;;;;;;;;;12.00;12.00;;;;;-0.05;66.79;101553.91;5095046;28;8956;-58
2024/01/11 10:30:16;;;;;;;;;7.00;6.80;;;;;0.47;65.84;101560.25;5092998;28;8863;-58
2024/01/11 10:32:45;;;;;;;;;11.60;11.60;;;;;0.95;65.64;101546.47;5094577;28;8834;-56
2024/01/11 10:35:13;;;;;;;;;4.00;4.00;;;;;1.39;65.78;101533.53;5094713;28;8848;-56
2024/01/11 10:37:41;;;;;;;;;16.20;14.40;;;;;1.86;65.00;101537.91;5093509;28;8927;-57
2024/01/11 10:40:12;;;;;;;;;19.40;15.40;;;;;2.32;64.40;101529.09;5093372;28;8842;-57
2024/01/11 10:42:40;;;;;;;;;3.60;3.60;;;;;2.98;63.94;101521.47;5092412;28;8832;-56
2024/01/11 10:45:08;;;;;;;;;11.40;9.60;;;;;3.76;62.50;101515.06;5092729;28;8934;-58
2024/01/11 10:47:36;;;;;;;;;17.20;14.60;;;;;4.56;61.59;101505.72;5093065;28;8842;-58
2024/01/11 10:50:04;;;;;;;;;18.20;17.40;;;;;5.33;60.20;101504.94;5092935;28;8827;-59
2024/01/11 10:52:32;;;;;;;;;20.20;14.60;;;;;6.05;59.66;101497.13;5093328;28;9500;-58
2024/01/11 10:55:00;;;;;;;;;19.60;17.20;;;;;6.66;59.39;101498.34;5088958;28;8821;-57
2024/01/11 10:57:28;;;;;;;;;23.40;20.80;;;;;7.27;58.35;101494.97;5089406;28;8852;-57
2024/01/11 10:59:56;;;;;;;;;18.60;17.40;;;;;7.76;57.70;101491.03;5092679;28;8831;-56
2024/01/11 11:02:24;;;;;;;;;24.20;22.80;;;;;7.98;57.74;101496.25;5093161;28;8859;-59
2024/01/11 11:04:53;;;;;;;;;13.80;12.20;;;;;8.02;58.40;101496.06;5093553;28;8822;-57
2024/01/11 11:07:20;;;;;;;;;26.20;20.60;;;;;7.98;58.64;101491.81;5093346;28;8902;-59
2024/01/11 11:09:48;;;;;;;;;22.20;18.80;;;;;7.75;59.74;101488.47;5093177;28;8830;-58
2024/01/11 11:12:17;;;;;;;;;25.00;23.60;;;;;7.68;59.96;101491.41;5093309;28;9653;-57
2024/01/11 11:14:47;;;;;;;;;28.60;19.60;;;;;7.65;60.23;101481.81;5092719;28;8826;-59
2024/01/11 11:17:15;;;;;;;;;24.00;20.60;;;;;7.62;60.83;101478.44;5092939;28;8853;-57
2024/01/11 11:19:43;;;;;;;;;15.80;15.20;;;;;7.64;60.54;101487.19;5091998;28;8895;-59
2024/01/11 11:22:11;;;;;;;;;22.40;21.60;;;;;7.85;60.00;101480.00;5093363;28;8838;-57
2024/01/11 11:24:39;;;;;;;;;24.60;18.40;;;;;8.19;59.55;101474.09;5092180;28;8837;-57
2024/01/11 11:27:07;;;;;;;;;21.00;20.20;;;;;8.45;59.29;101471.97;5092658;28;8838;-57
2024/01/11 11:29:35;;;;;;;;;25.20;23.00;;;;;8.73;58.32;101467.09;5092118;28;8976;-60
2024/01/11 11:32:04;;;;;;;;;15.40;14.80;;;;;8.80;59.05;101460.53;5092085;28;8802;-59